Time;durP1;ratioP1;P1;durP2;ratioP2;P2;SDS_P1;SDS_P2;PMS_P1;PMS_P2;Temp;Humidity;BMP_temperature;BMP_pressure;BME280_temperature;BME280_humidity;BME280_pressure;Samples;Min_cycle;Max_cycle;Signal;HPM_P1;HPM_P2
2023/10/30 00:01:27;;;;;;;8.57;5.27;;;11.40;99.90;;;;;;4823180;29;20210;-81
2023/10/30 00:03:56;;;;;;;11.03;6.03;;;11.50;99.90;;;;;;4807459;29;20684;-80
2023/10/30 00:06:32;;;;;;;11.50;6.23;;;11.40;99.90;;;;;;4821692;29;20210;-77
2023/10/30 00:09:05;;;;;;;13.53;5.77;;;11.40;99.90;;;;;;4822142;29;20651;-80
2023/10/30 00:11:36;;;;;;;14.90;6.30;;;11.40;99.90;;;;;;4823370;29;20294;-81
2023/10/30 00:14:05;;;;;;;12.03;6.03;;;11.40;99.90;;;;;;4823931;29;20191;-81
2023/10/30 00:16:46;;;;;;;10.80;5.90;;;11.40;99.90;;;;;;4806897;29;20639;-81
2023/10/30 00:19:16;;;;;;;13.77;6.57;;;11.30;99.90;;;;;;4791879;29;20230;-80
2023/10/30 00:21:52;;;;;;;18.63;6.63;;;11.30;99.90;;;;;;4806528;29;20210;-81
2023/10/30 00:24:23;;;;;;;12.13;6.23;;;11.30;99.90;;;;;;4822469;29;20681;-81
2023/10/30 00:26:54;;;;;;;11.23;6.07;;;11.30;99.90;;;;;;4822773;29;20195;-81
2023/10/30 00:29:21;;;;;;;8.70;5.60;;;11.20;99.90;;;;;;4823206;29;20286;-81
2023/10/30 00:31:56;;;;;;;11.07;5.80;;;11.20;99.90;;;;;;4807455;29;20290;-81
2023/10/30 00:34:24;;;;;;;13.70;6.53;;;11.10;99.90;;;;;;4823435;29;20698;-77
2023/10/30 00:36:51;;;;;;;13.17;6.40;;;11.20;99.90;;;;;;4822603;29;20195;-77
2023/10/30 00:39:19;;;;;;;14.13;6.20;;;11.20;99.90;;;;;;4821718;29;20230;-81
2023/10/30 00:41:49;;;;;;;12.03;6.10;;;11.20;99.90;;;;;;4822692;29;20218;-81
2023/10/30 00:44:19;;;;;;;14.17;6.23;;;11.20;99.90;;;;;;4806564;29;20210;-81
2023/10/30 00:46:52;;;;;;;13.83;6.17;;;11.10;99.90;;;;;;4821311;29;20678;-80
2023/10/30 00:49:21;;;;;;;14.70;6.00;;;11.00;99.90;;;;;;4822788;29;20228;-81
2023/10/30 00:51:49;;;;;;;16.70;6.03;;;11.00;99.90;;;;;;4822345;29;20199;-81
2023/10/30 00:54:17;;;;;;;10.10;5.63;;;11.20;99.90;;;;;;4790846;29;20569;-81
2023/10/30 00:56:45;;;;;;;11.07;5.60;;;11.20;99.90;;;;;;4821708;29;20253;-81
2023/10/30 00:59:13;;;;;;;10.93;5.83;;;11.20;99.90;;;;;;4822340;29;20694;-81
2023/10/30 01:01:41;;;;;;;14.47;5.97;;;11.30;99.90;;;;;;4791751;29;20275;-80
2023/10/30 01:04:11;;;;;;;11.40;5.60;;;11.30;99.90;;;;;;4822806;29;20309;-80
2023/10/30 01:06:53;;;;;;;11.40;5.50;;;11.30;99.90;;;;;;4805340;29;20207;-79
2023/10/30 01:09:20;;;;;;;11.97;5.70;;;11.30;99.90;;;;;;4791337;29;20655;-80
2023/10/30 01:11:51;;;;;;;11.17;5.40;;;11.40;99.90;;;;;;4826070;29;20256;-80
2023/10/30 01:14:22;;;;;;;10.37;5.10;;;11.40;99.90;;;;;;4825329;29;20211;-81
2023/10/30 01:16:50;;;;;;;12.27;5.90;;;11.50;99.90;;;;;;4809510;29;20251;-80
2023/10/30 01:19:18;;;;;;;10.03;5.83;;;11.50;99.90;;;;;;4809737;29;20228;-77
2023/10/30 01:21:49;;;;;;;14.30;6.17;;;11.60;99.90;;;;;;4825895;29;20199;-80
2023/10/30 01:24:21;;;;;;;12.80;6.10;;;11.50;99.90;;;;;;4825245;29;20206;-81
2023/10/30 01:26:51;;;;;;;12.67;5.50;;;11.50;99.90;;;;;;4825525;29;20195;-74
2023/10/30 01:29:21;;;;;;;10.37;5.60;;;11.40;99.90;;;;;;4810203;29;20618;-81
2023/10/30 01:31:50;;;;;;;11.97;5.80;;;11.40;99.90;;;;;;4808242;29;20231;-81
2023/10/30 01:34:21;;;;;;;11.70;5.87;;;11.40;99.90;;;;;;4810003;29;20219;-80
2023/10/30 01:37:04;;;;;;;9.53;5.50;;;11.40;99.90;;;;;;4809069;29;20203;-80
2023/10/30 01:39:33;;;;;;;22.47;7.30;;;11.40;99.90;;;;;;4808975;29;20241;-80
2023/10/30 01:42:01;;;;;;;11.43;5.90;;;11.30;99.90;;;;;;4809273;29;20255;-81
2023/10/30 01:44:32;;;;;;;11.07;5.70;;;11.20;99.90;;;;;;4825335;29;20218;-80
2023/10/30 01:46:59;;;;;;;9.67;5.50;;;11.30;99.90;;;;;;4809014;29;20294;-79
2023/10/30 01:49:33;;;;;;;10.37;5.57;;;11.30;99.90;;;;;;4825395;29;20686;-79
2023/10/30 01:52:04;;;;;;;11.67;5.83;;;11.30;99.90;;;;;;4825378;29;20207;-81
2023/10/30 01:54:31;;;;;;;11.83;5.57;;;11.10;99.90;;;;;;4824571;29;20211;-77
2023/10/30 01:56:59;;;;;;;11.33;5.57;;;11.10;99.90;;;;;;4808944;29;20207;-81
2023/10/30 01:59:39;;;;;;;12.37;5.80;;;11.00;99.90;;;;;;4825100;29;20755;-82
2023/10/30 02:02:11;;;;;;;10.47;5.30;;;11.00;99.90;;;;;;4824211;29;20259;-81
2023/10/30 02:04:43;;;;;;;12.90;5.90;;;10.90;99.90;;;;;;4808983;29;20566;-80
2023/10/30 02:07:13;;;;;;;10.23;5.43;;;10.90;99.90;;;;;;4825157;29;20285;-81
2023/10/30 02:09:43;;;;;;;12.73;6.20;;;10.80;99.90;;;;;;4808656;29;20196;-79
2023/10/30 02:12:10;;;;;;;15.40;6.20;;;10.90;99.90;;;;;;4823552;29;20754;-82
2023/10/30 02:14:45;;;;;;;11.50;5.77;;;10.90;99.90;;;;;;4823594;29;20225;-78
2023/10/30 02:17:19;;;;;;;8.83;5.40;;;10.90;99.90;;;;;;4808254;29;20573;-81
2023/10/30 02:19:47;;;;;;;9.17;5.43;;;10.90;99.90;;;;;;4824778;29;20230;-81
2023/10/30 02:22:21;;;;;;;10.13;5.77;;;10.90;99.90;;;;;;4807862;29;20195;-80
2023/10/30 02:24:50;;;;;;;9.30;5.80;;;10.90;99.90;;;;;;4824726;29;20203;-81
2023/10/30 02:27:20;;;;;;;9.30;5.30;;;10.90;99.90;;;;;;4824553;29;20232;-82
2023/10/30 02:29:48;;;;;;;20.93;7.10;;;10.90;99.90;;;;;;4823890;29;20207;-81
2023/10/30 02:32:19;;;;;;;10.50;5.33;;;10.80;99.90;;;;;;4841435;29;20234;-79
2023/10/30 02:34:50;;;;;;;11.73;5.53;;;10.80;99.90;;;;;;4842975;29;20205;-81
2023/10/30 02:37:17;;;;;;;9.10;5.60;;;10.80;99.90;;;;;;4826680;29;20662;-81
2023/10/30 02:39:57;;;;;;;10.73;5.87;;;10.80;99.90;;;;;;4811199;29;20698;-81
2023/10/30 02:42:28;;;;;;;10.27;5.40;;;11.00;99.90;;;;;;4843165;29;20187;-81
2023/10/30 02:44:58;;;;;;;12.70;5.87;;;10.80;99.90;;;;;;4841789;29;20251;-81
2023/10/30 02:47:29;;;;;;;14.13;5.87;;;10.90;99.90;;;;;;4826710;29;20202;-81
2023/10/30 02:49:57;;;;;;;10.87;6.13;;;10.80;99.90;;;;;;4842959;29;20225;-82
2023/10/30 02:52:25;;;;;;;8.20;5.33;;;10.80;99.90;;;;;;4842585;29;20202;-82
2023/10/30 02:54:58;;;;;;;12.97;6.13;;;10.80;99.90;;;;;;4841881;29;20222;-81
2023/10/30 02:57:30;;;;;;;12.70;6.10;;;10.70;99.90;;;;;;4841329;29;20617;-81
2023/10/30 02:59:58;;;;;;;11.53;5.90;;;10.80;99.90;;;;;;4842506;29;20226;-81
2023/10/30 03:02:27;;;;;;;10.10;5.97;;;10.60;99.90;;;;;;4842626;29;20210;-81
2023/10/30 03:05:01;;;;;;;11.27;6.27;;;10.60;99.90;;;;;;4842770;29;20293;-80
2023/10/30 03:07:29;;;;;;;12.63;6.00;;;10.60;99.90;;;;;;4839746;29;20297;-80
2023/10/30 03:09:59;;;;;;;12.13;6.07;;;10.60;99.90;;;;;;4826040;29;20281;-81
2023/10/30 03:12:29;;;;;;;10.57;5.87;;;10.50;99.90;;;;;;4810547;29;20280;-81
2023/10/30 03:14:57;;;;;;;11.10;5.77;;;10.60;99.90;;;;;;4824751;29;20297;-81
2023/10/30 03:17:28;;;;;;;10.83;5.70;;;10.60;99.90;;;;;;4842541;29;20203;-80
2023/10/30 03:20:04;;;;;;;12.17;6.30;;;10.60;99.90;;;;;;4841986;29;20218;-81
2023/10/30 03:22:40;;;;;;;9.83;5.93;;;10.60;99.90;;;;;;4842342;29;20621;-81
2023/10/30 03:25:12;;;;;;;11.27;5.77;;;10.60;99.90;;;;;;4825824;29;20237;-78
2023/10/30 03:27:51;;;;;;;11.57;5.80;;;10.60;99.90;;;;;;4842432;29;20194;-81
2023/10/30 03:30:24;;;;;;;10.63;6.10;;;10.60;99.90;;;;;;4841896;29;20260;-81
2023/10/30 03:32:57;;;;;;;10.27;5.80;;;10.60;99.90;;;;;;4841234;29;20218;-81
2023/10/30 03:35:26;;;;;;;10.03;5.63;;;10.70;99.90;;;;;;4840837;29;20690;-80
2023/10/30 03:37:57;;;;;;;10.57;5.63;;;10.70;99.90;;;;;;4842163;29;20209;-81
2023/10/30 03:40:28;;;;;;;10.03;6.10;;;10.80;99.90;;;;;;4841336;29;20214;-81
2023/10/30 03:42:55;;;;;;;16.73;6.47;;;10.80;99.90;;;;;;4841808;29;20561;-81
2023/10/30 03:45:29;;;;;;;8.50;5.17;;;10.80;99.90;;;;;;4840502;29;20234;-76
2023/10/30 03:47:59;;;;;;;12.37;5.70;;;10.90;99.90;;;;;;4825474;29;20736;-81
2023/10/30 03:50:27;;;;;;;14.37;5.77;;;10.80;99.90;;;;;;4841477;29;20225;-81
2023/10/30 03:52:55;;;;;;;12.47;5.37;;;10.80;99.90;;;;;;4841656;29;20553;-80
2023/10/30 03:55:23;;;;;;;11.60;5.77;;;10.80;99.90;;;;;;4825072;29;20203;-80
2023/10/30 03:57:51;;;;;;;11.37;5.90;;;10.60;99.90;;;;;;4840249;29;20210;-80
2023/10/30 04:00:30;;;;;;;11.37;6.10;;;10.50;99.90;;;;;;4824908;29;20226;-80
2023/10/30 04:03:00;;;;;;;11.30;5.47;;;10.60;99.90;;;;;;4823376;29;20702;-81
2023/10/30 04:05:31;;;;;;;11.00;5.63;;;10.40;99.90;;;;;;4825112;29;20198;-81
2023/10/30 04:07:59;;;;;;;9.30;6.07;;;10.30;99.90;;;;;;4809649;29;20666;-75
2023/10/30 04:10:41;;;;;;;9.87;5.80;;;10.30;99.90;;;;;;4766407;30;20208;-81
2023/10/30 04:13:10;;;;;;;10.60;5.90;;;10.40;99.90;;;;;;4766866;30;20227;-82
2023/10/30 04:15:42;;;;;;;10.57;6.20;;;10.40;99.90;;;;;;4751499;30;20220;-80
2023/10/30 04:18:12;;;;;;;11.13;6.10;;;10.30;99.90;;;;;;4766303;30;20315;-80
2023/10/30 04:20:39;;;;;;;11.60;5.57;;;10.20;99.90;;;;;;4766028;30;20243;-80
2023/10/30 04:23:12;;;;;;;9.80;5.80;;;10.20;99.90;;;;;;4766811;30;20212;-81
2023/10/30 04:25:40;;;;;;;10.07;6.00;;;10.10;99.90;;;;;;4766517;30;20258;-81
2023/10/30 04:28:10;;;;;;;12.40;6.17;;;10.10;99.90;;;;;;4784743;29;20221;-83
2023/10/30 04:30:48;;;;;;;11.23;5.77;;;10.20;99.90;;;;;;4824778;29;20238;-77
2023/10/30 04:33:23;;;;;;;10.03;5.80;;;10.10;99.90;;;;;;4825567;29;20222;-82
2023/10/30 04:35:50;;;;;;;22.30;6.73;;;9.90;99.90;;;;;;4824312;29;20198;-82
2023/10/30 04:38:29;;;;;;;10.23;6.03;;;9.90;99.90;;;;;;4841170;29;20197;-83
2023/10/30 04:41:09;;;;;;;11.77;5.97;;;10.10;99.90;;;;;;4826491;29;20222;-80
2023/10/30 04:43:39;;;;;;;9.87;6.07;;;9.90;99.90;;;;;;4840553;29;20193;-82
2023/10/30 04:46:09;;;;;;;10.33;5.80;;;9.90;99.90;;;;;;4840756;29;20218;-81
2023/10/30 04:48:37;;;;;;;14.83;6.50;;;9.90;99.90;;;;;;4839662;29;20313;-82
2023/10/30 04:51:05;;;;;;;9.47;5.87;;;10.00;99.90;;;;;;4840709;29;20194;-81
2023/10/30 04:53:40;;;;;;;10.67;5.63;;;9.90;99.90;;;;;;4841350;29;20288;-81
2023/10/30 04:56:10;;;;;;;10.70;6.00;;;10.00;99.90;;;;;;4809473;29;20244;-80
2023/10/30 04:58:38;;;;;;;14.60;5.93;;;9.90;99.90;;;;;;4840519;29;20190;-82
2023/10/30 05:01:13;;;;;;;10.53;5.40;;;9.90;99.90;;;;;;4839916;29;20222;-81
2023/10/30 05:03:47;;;;;;;13.03;6.20;;;10.00;99.90;;;;;;4825622;29;20218;-81
2023/10/30 05:06:25;;;;;;;10.40;5.60;;;10.00;99.90;;;;;;4825681;29;20194;-80
2023/10/30 05:08:53;;;;;;;11.90;6.17;;;10.00;99.90;;;;;;4839254;29;20235;-83
2023/10/30 05:11:20;;;;;;;11.00;6.07;;;9.90;99.90;;;;;;4824782;29;20194;-82
2023/10/30 05:13:51;;;;;;;10.63;6.23;;;10.00;99.90;;;;;;4825079;29;20289;-82
2023/10/30 05:16:18;;;;;;;9.83;5.77;;;9.90;99.90;;;;;;4839759;29;20232;-83
2023/10/30 05:18:51;;;;;;;12.80;5.40;;;10.00;99.90;;;;;;4824538;29;20215;-83
2023/10/30 05:21:19;;;;;;;14.90;6.27;;;10.00;99.90;;;;;;4822884;29;20230;-82
2023/10/30 05:23:48;;;;;;;13.03;5.83;;;9.90;99.90;;;;;;4840281;29;20202;-82
2023/10/30 05:26:19;;;;;;;11.60;5.77;;;10.00;99.90;;;;;;4824291;29;20262;-82
2023/10/30 05:28:49;;;;;;;11.93;6.03;;;10.10;99.90;;;;;;4824876;29;20278;-83
2023/10/30 05:31:17;;;;;;;11.30;5.80;;;10.00;99.90;;;;;;4839099;29;20242;-83
2023/10/30 05:33:47;;;;;;;13.53;6.33;;;10.00;99.90;;;;;;4824876;29;20218;-84
2023/10/30 05:36:24;;;;;;;10.47;5.93;;;9.80;99.90;;;;;;4824415;29;20277;-82
2023/10/30 05:38:55;;;;;;;9.67;5.47;;;10.20;99.90;;;;;;4824000;29;20280;-83
2023/10/30 05:41:33;;;;;;;9.23;5.87;;;10.10;99.90;;;;;;4823701;29;20230;-85
2023/10/30 05:44:46;;;;;;;8.97;5.63;;;10.10;99.90;;;;;;4823644;29;20210;-85
2023/10/30 05:47:32;;;;;;;10.00;5.40;;;10.10;99.90;;;;;;4809674;29;20549;-83
2023/10/30 05:50:03;;;;;;;9.40;5.53;;;10.00;99.90;;;;;;4840494;29;20206;-84
2023/10/30 05:52:34;;;;;;;11.77;5.80;;;10.10;99.90;;;;;;4839870;29;20199;-84
2023/10/30 05:55:13;;;;;;;10.37;5.77;;;10.10;99.90;;;;;;4825423;29;20247;-83
2023/10/30 05:57:44;;;;;;;10.33;5.53;;;10.10;99.90;;;;;;4825719;29;20313;-83
2023/10/30 06:00:14;;;;;;;10.90;5.77;;;10.20;99.90;;;;;;4827048;29;20762;-83
2023/10/30 06:02:42;;;;;;;12.20;5.27;;;10.10;99.90;;;;;;4827025;29;20218;-83
2023/10/30 06:05:14;;;;;;;12.27;6.07;;;10.10;99.90;;;;;;4812290;29;20191;-83
2023/10/30 06:07:44;;;;;;;11.83;5.73;;;10.20;99.90;;;;;;4826500;29;20254;-82
2023/10/30 06:10:16;;;;;;;10.90;5.40;;;10.30;99.90;;;;;;4812115;29;20719;-82
2023/10/30 06:12:48;;;;;;;12.53;5.77;;;10.30;99.90;;;;;;4842728;29;20189;-84
2023/10/30 06:15:23;;;;;;;11.10;5.33;;;10.30;99.90;;;;;;4810084;29;20214;-82
2023/10/30 06:17:54;;;;;;;8.73;5.37;;;10.30;99.90;;;;;;4811065;29;20237;-84
2023/10/30 06:20:23;;;;;;;11.90;5.50;;;10.60;99.90;;;;;;4811434;29;20237;-83
2023/10/30 06:22:53;;;;;;;10.10;5.70;;;10.50;99.90;;;;;;4826230;29;20202;-83
2023/10/30 06:25:28;;;;;;;7.17;4.87;;;10.50;99.90;;;;;;4842446;29;20198;-83
2023/10/30 06:28:06;;;;;;;9.17;5.23;;;10.60;99.90;;;;;;4826697;29;20194;-83
2023/10/30 06:30:42;;;;;;;11.47;5.33;;;10.50;99.90;;;;;;4828136;29;20249;-84
2023/10/30 06:33:18;;;;;;;11.77;5.40;;;10.70;99.90;;;;;;4825858;29;20773;-83
2023/10/30 06:35:55;;;;;;;9.23;5.17;;;10.70;99.90;;;;;;4810997;29;20297;-83
2023/10/30 06:38:24;;;;;;;9.53;5.27;;;10.90;99.90;;;;;;4811278;29;20202;-80
2023/10/30 06:40:53;;;;;;;8.37;5.27;;;11.10;99.90;;;;;;4810847;29;20242;-84
2023/10/30 06:43:24;;;;;;;10.27;4.97;;;10.90;99.90;;;;;;4826065;29;20206;-80
2023/10/30 06:46:03;;;;;;;10.97;4.90;;;11.00;99.90;;;;;;4808909;29;20207;-79
2023/10/30 06:48:34;;;;;;;8.17;4.87;;;11.10;99.90;;;;;;4826488;29;20260;-83
2023/10/30 06:51:08;;;;;;;8.30;4.70;;;11.30;99.90;;;;;;4810830;29;20221;-84
2023/10/30 06:53:38;;;;;;;10.57;5.23;;;11.30;99.90;;;;;;4826428;29;20281;-79
2023/10/30 06:56:08;;;;;;;9.93;5.00;;;11.20;99.90;;;;;;4810977;29;20206;-81
2023/10/30 06:58:56;;;;;;;8.20;5.30;;;11.40;99.90;;;;;;4826002;29;20221;-83
2023/10/30 07:01:48;;;;;;;8.70;4.53;;;11.40;99.90;;;;;;4828614;29;20313;-82
2023/10/30 07:04:16;;;;;;;9.83;4.40;;;11.80;99.90;;;;;;4825906;29;20218;-82
2023/10/30 07:06:50;;;;;;;8.10;4.10;;;11.60;99.90;;;;;;4810882;29;20206;-84
2023/10/30 07:12:20;;;;;;;17.47;5.47;;;11.70;99.90;;;;;;4814006;29;20297;-83
2023/10/30 07:14:49;;;;;;;10.50;4.80;;;11.80;99.90;;;;;;4842806;29;20658;-83
2023/10/30 07:17:23;;;;;;;9.77;4.83;;;12.10;99.90;;;;;;4825587;29;20686;-79
2023/10/30 07:19:52;;;;;;;9.40;4.53;;;12.20;99.90;;;;;;4825362;29;20220;-76
2023/10/30 07:22:20;;;;;;;7.17;4.10;;;12.20;99.90;;;;;;4841768;29;20286;-76
2023/10/30 07:24:50;;;;;;;6.77;4.30;;;12.40;99.90;;;;;;4825566;29;20281;-77
2023/10/30 07:27:18;;;;;;;6.23;3.80;;;12.70;99.90;;;;;;4841824;29;20202;-80
2023/10/30 07:29:55;;;;;;;9.00;3.83;;;12.50;99.90;;;;;;4841623;29;20254;-79
2023/10/30 07:32:23;;;;;;;6.57;3.73;;;12.60;99.90;;;;;;4841313;29;20237;-81
2023/10/30 07:34:51;;;;;;;8.83;4.10;;;12.70;99.90;;;;;;4840431;29;20217;-77
2023/10/30 07:37:19;;;;;;;6.90;3.63;;;12.90;99.90;;;;;;4842009;29;20277;-81
2023/10/30 07:39:52;;;;;;;6.40;3.20;;;13.20;99.90;;;;;;4839869;29;20209;-81
2023/10/30 07:42:20;;;;;;;6.33;3.37;;;13.60;99.90;;;;;;4824907;29;20233;-80
2023/10/30 07:44:50;;;;;;;11.57;4.13;;;14.00;99.90;;;;;;4840327;29;20544;-79
2023/10/30 07:47:17;;;;;;;6.30;3.27;;;14.30;99.90;;;;;;4825744;29;20199;-80
2023/10/30 07:50:01;;;;;;;9.70;3.93;;;14.50;99.90;;;;;;4841786;29;20201;-80
2023/10/30 07:52:29;;;;;;;9.60;3.23;;;14.90;99.90;;;;;;4839989;29;20611;-76
2023/10/30 08:26:30;;;;;;;5.20;2.23;;;17.60;99.90;;;;;;5125543;24;20260;-83
2023/10/30 08:58:47;;;;;;;;;;;;;;;;;;;;;
2023/10/30 09:05:17;;;;;;;;;;;;;;;;;;;;;
2023/10/30 09:08:58;;;;;;;8.53;2.90;;;17.50;99.90;;;;;;4761326;30;20741;-84
2023/10/30 09:21:05;;;;;;;;;;;;;;;;;;;;;
2023/10/30 13:37:55;;;;;;;3.77;2.00;;;21.10;99.90;;;;;;5332308;24;20326;-86
2023/10/30 13:40:44;;;;;;;4.63;1.97;;;21.00;99.90;;;;;;4772809;30;20307;-85
2023/10/30 13:44:03;;;;;;;6.53;2.00;;;20.80;99.90;;;;;;4740675;30;20213;-83
2023/10/30 13:53:11;;;;;;;3.83;2.00;;;20.00;99.90;;;;;;4975102;24;20243;-89
2023/10/30 14:00:13;;;;;;;4.47;2.10;;;19.50;99.90;;;;;;4698343;30;20253;-82
2023/10/30 14:02:43;;;;;;;11.77;2.73;;;19.00;99.90;;;;;;4670255;30;20240;-83
2023/10/30 14:05:21;;;;;;;12.80;3.00;;;18.90;99.90;;;;;;4685796;30;20564;-83
2023/10/30 14:07:53;;;;;;;4.17;2.00;;;19.00;99.90;;;;;;4684367;30;20215;-82
2023/10/30 14:10:23;;;;;;;3.80;1.97;;;19.00;99.90;;;;;;4684443;30;20207;-82
2023/10/30 14:12:56;;;;;;;4.83;2.07;;;19.00;99.90;;;;;;4683891;30;20211;-84
2023/10/30 14:15:43;;;;;;;3.40;1.90;;;18.90;99.90;;;;;;4685769;30;20212;-84
2023/10/30 14:19:11;;;;;;;;;;;;;;;;;;;;;
2023/10/30 14:29:55;;;;;;;8.37;2.60;;;18.40;99.90;;;;;;4580589;31;20269;-84
2023/10/30 14:32:52;;;;;;;9.73;2.40;;;18.10;99.90;;;;;;4569538;31;20356;-82
2023/10/30 14:35:55;;;;;;;10.43;2.40;;;18.00;99.90;;;;;;4565996;31;20209;-84
2023/10/30 14:38:59;;;;;;;4.17;2.20;;;17.70;99.90;;;;;;4568852;31;20766;-85
2023/10/30 14:42:16;;;;;;;5.00;1.90;;;17.70;99.90;;;;;;4562196;31;20755;-85
2023/10/30 15:24:19;;;;;;;8.97;4.70;;;16.00;99.90;;;;;;5158872;24;20321;-82
2023/10/30 15:54:47;;;;;;;;;;;;;;;;;;;;;
2023/10/30 16:50:56;;;;;;;13.50;6.03;;;14.40;99.90;;;;;;6183162;23;20202;-83
2023/10/30 18:11:19;;;;;;;19.30;10.30;;;13.40;99.90;;;;;;6148767;23;20191;-79
2023/10/30 18:13:52;;;;;;;21.43;11.20;;;13.30;99.90;;;;;;6150641;23;20238;-76
2023/10/30 18:16:21;;;;;;;22.50;10.77;;;13.40;99.90;;;;;;6127036;23;20199;-76
2023/10/30 18:18:56;;;;;;;21.27;10.77;;;13.30;99.90;;;;;;6121780;23;20739;-76
2023/10/30 18:21:25;;;;;;;19.03;10.43;;;13.20;99.90;;;;;;6122019;23;20315;-78
2023/10/30 18:23:59;;;;;;;17.73;10.30;;;13.20;99.90;;;;;;6144115;23;20180;-78
2023/10/30 18:26:27;;;;;;;21.27;10.47;;;13.20;99.90;;;;;;6122054;23;20175;-78
2023/10/30 18:28:57;;;;;;;21.03;11.00;;;13.30;99.90;;;;;;6122164;23;20176;-79
2023/10/30 18:31:44;;;;;;;21.73;11.10;;;13.20;99.90;;;;;;6121745;23;20601;-75
2023/10/30 18:34:24;;;;;;;17.60;10.60;;;13.30;99.90;;;;;;6122081;23;20272;-77
2023/10/30 18:36:52;;;;;;;20.57;11.30;;;13.00;99.90;;;;;;6121916;23;20634;-80
2023/10/30 18:39:26;;;;;;;22.73;11.83;;;13.10;99.90;;;;;;6121738;23;20184;-80
2023/10/30 18:41:56;;;;;;;24.70;12.83;;;13.20;99.90;;;;;;6097630;23;20204;-82
2023/10/30 18:44:24;;;;;;;22.73;12.37;;;13.20;99.90;;;;;;6239234;23;20245;-77
2023/10/30 18:46:52;;;;;;;24.93;12.33;;;13.20;99.90;;;;;;6274565;22;20164;-75
2023/10/30 18:49:21;;;;;;;27.00;13.03;;;13.20;99.90;;;;;;6310267;22;20176;-76
2023/10/30 18:51:51;;;;;;;26.73;13.40;;;13.40;99.90;;;;;;6309672;22;20169;-76
2023/10/30 18:54:19;;;;;;;23.13;13.07;;;13.00;99.90;;;;;;6306973;22;20173;-78
2023/10/30 18:56:56;;;;;;;24.37;13.57;;;13.00;99.90;;;;;;6336865;22;20184;-81
2023/10/30 18:59:33;;;;;;;29.23;14.27;;;13.00;99.90;;;;;;6307668;22;20290;-76
2023/10/30 19:02:04;;;;;;;25.77;13.93;;;13.00;99.90;;;;;;6310028;22;20488;-80
2023/10/30 21:55:24;;;;;;;33.73;18.03;;;11.70;99.90;;;;;;6343091;22;20207;-78
2023/10/30 21:57:52;;;;;;;36.90;18.00;;;11.70;99.90;;;;;;6369093;22;20167;-79
2023/10/30 22:00:25;;;;;;;33.57;18.20;;;11.70;99.90;;;;;;6368205;22;20179;-80
2023/10/30 22:02:53;;;;;;;31.17;17.63;;;11.70;99.90;;;;;;6368088;22;20198;-76
2023/10/30 22:05:23;;;;;;;39.53;18.20;;;11.70;99.90;;;;;;6370117;22;20487;-81
2023/10/30 22:07:52;;;;;;;31.30;17.17;;;11.80;99.90;;;;;;6341904;22;20262;-81
2023/10/30 22:10:23;;;;;;;28.83;16.77;;;11.80;99.90;;;;;;6341973;22;20195;-81
2023/10/30 22:12:54;;;;;;;28.37;16.60;;;11.80;99.90;;;;;;6367894;22;20159;-81
2023/10/30 22:15:23;;;;;;;30.60;16.00;;;11.80;99.90;;;;;;6367094;22;20167;-81
2023/10/30 22:17:56;;;;;;;25.80;15.37;;;11.80;99.90;;;;;;6367749;22;20623;-83
2023/10/30 22:20:27;;;;;;;25.93;15.80;;;11.80;99.90;;;;;;6342487;22;20523;-80
2023/10/30 22:22:56;;;;;;;29.13;15.37;;;12.00;99.90;;;;;;6368789;22;20174;-81
2023/10/30 22:25:25;;;;;;;30.97;15.67;;;11.90;99.90;;;;;;6367591;22;20164;-81
2023/10/30 22:27:56;;;;;;;29.17;15.93;;;11.90;99.90;;;;;;6369279;22;20488;-82
2023/10/30 22:30:24;;;;;;;27.43;15.23;;;11.90;99.90;;;;;;6341253;22;20654;-82
2023/10/30 22:32:56;;;;;;;33.10;15.47;;;11.90;99.90;;;;;;6367567;22;20191;-82
2023/10/30 22:35:27;;;;;;;26.53;14.73;;;12.00;99.90;;;;;;6368829;22;20191;-82
2023/10/30 22:37:57;;;;;;;26.50;15.03;;;11.90;99.90;;;;;;6341584;22;20160;-81
2023/10/30 22:40:25;;;;;;;25.87;14.63;;;11.80;99.90;;;;;;6341198;22;20175;-82
2023/10/30 22:42:53;;;;;;;27.67;14.90;;;11.80;99.90;;;;;;6340819;22;20339;-81
2023/10/30 22:45:22;;;;;;;27.87;14.83;;;11.80;99.90;;;;;;6341840;22;20167;-81
2023/10/30 22:47:51;;;;;;;26.20;14.37;;;11.80;99.90;;;;;;6367254;22;20275;-80
2023/10/30 22:50:19;;;;;;;24.07;14.67;;;11.70;99.90;;;;;;6365929;22;20239;-80
2023/10/30 22:53:09;;;;;;;27.43;15.83;;;11.80;99.90;;;;;;6367180;22;20599;-80
2023/10/30 22:55:44;;;;;;;27.30;14.33;;;11.60;99.90;;;;;;6341157;22;20248;-81
2023/10/30 22:58:21;;;;;;;24.30;14.27;;;11.50;99.90;;;;;;6367404;22;20156;-82
2023/10/30 23:00:52;;;;;;;28.50;15.10;;;11.70;99.90;;;;;;6341588;22;20650;-81
2023/10/30 23:03:20;;;;;;;25.43;14.50;;;11.70;99.90;;;;;;6342126;22;20224;-82
2023/10/30 23:05:52;;;;;;;23.63;14.03;;;11.60;99.90;;;;;;6342366;22;20169;-81
2023/10/30 23:08:22;;;;;;;24.67;14.77;;;11.80;99.90;;;;;;6342060;22;20183;-81
2023/10/30 23:10:56;;;;;;;23.23;13.63;;;11.60;99.90;;;;;;6342154;22;20170;-81
2023/10/30 23:13:28;;;;;;;25.73;13.37;;;11.70;99.90;;;;;;6342398;22;20179;-79
2023/10/30 23:15:56;;;;;;;23.27;13.37;;;11.70;99.90;;;;;;6367839;22;20175;-80
2023/10/30 23:18:24;;;;;;;27.37;12.47;;;11.70;99.90;;;;;;6369160;22;20622;-80
2023/10/30 23:20:54;;;;;;;25.60;12.93;;;11.70;99.90;;;;;;6341437;22;20176;-82
2023/10/30 23:23:23;;;;;;;22.13;12.57;;;11.80;99.90;;;;;;6367032;22;20238;-80
2023/10/30 23:25:52;;;;;;;23.13;12.13;;;11.70;99.90;;;;;;6341432;22;20631;-80
2023/10/30 23:28:22;;;;;;;19.80;11.50;;;11.60;99.90;;;;;;6341670;22;20501;-79
2023/10/30 23:30:51;;;;;;;22.97;11.97;;;11.70;99.90;;;;;;6369940;22;20257;-80
2023/10/30 23:33:28;;;;;;;24.67;12.10;;;11.80;99.90;;;;;;6367615;22;20236;-80
2023/10/30 23:36:15;;;;;;;23.27;11.60;;;11.70;99.90;;;;;;6367003;22;20179;-81
2023/10/30 23:38:50;;;;;;;17.90;11.30;;;11.60;99.90;;;;;;6342329;22;20540;-82
2023/10/30 23:41:32;;;;;;;20.00;11.50;;;11.60;99.90;;;;;;6341906;22;20199;-82
2023/10/30 23:44:12;;;;;;;16.50;10.60;;;11.70;99.90;;;;;;6366672;22;20552;-81
2023/10/30 23:46:46;;;;;;;18.57;10.27;;;11.70;99.90;;;;;;6342203;22;20194;-81
2023/10/30 23:49:19;;;;;;;20.97;11.07;;;11.90;99.90;;;;;;6341907;22;20195;-81
2023/10/30 23:51:52;;;;;;;18.20;10.83;;;11.70;99.90;;;;;;6369113;22;20171;-81
2023/10/30 23:54:27;;;;;;;20.67;9.90;;;11.60;99.90;;;;;;6342876;22;20271;-80
2023/10/30 23:57:10;;;;;;;18.07;10.67;;;11.60;99.90;;;;;;6344492;22;20199;-80
2023/10/30 23:59:43;;;;;;;16.73;10.13;;;11.60;99.90;;;;;;6340891;22;20500;-83
